sensor_id;sensor_type;location;lat;lon;timestamp;P1;durP1;ratioP1;P2;durP2;ratioP2
35364;SDS011;21464;48.112;11.530;2022-10-16T00:01:15;5.28;;;3.65;;
35364;SDS011;21464;48.112;11.530;2022-10-16T00:03:42;3.03;;;2.47;;
35364;SDS011;21464;48.112;11.530;2022-10-16T00:06:10;3.42;;;2.38;;
35364;SDS011;21464;48.112;11.530;2022-10-16T00:08:36;2.35;;;2.13;;
35364;SDS011;21464;48.112;11.530;2022-10-16T00:11:07;2.60;;;2.17;;
35364;SDS011;21464;48.112;11.530;2022-10-16T00:13:33;3.78;;;2.20;;
35364;SDS011;21464;48.112;11.530;2022-10-16T00:16:01;2.78;;;2.42;;
35364;SDS011;21464;48.112;11.530;2022-10-16T00:18:27;3.30;;;2.35;;
35364;SDS011;21464;48.112;11.530;2022-10-16T00:20:53;5.47;;;2.20;;
35364;SDS011;21464;48.112;11.530;2022-10-16T00:23:37;3.10;;;1.85;;
35364;SDS011;21464;48.112;11.530;2022-10-16T00:26:05;2.63;;;2.42;;
35364;SDS011;21464;48.112;11.530;2022-10-16T00:28:31;3.03;;;1.95;;
35364;SDS011;21464;48.112;11.530;2022-10-16T00:30:57;3.33;;;1.92;;
35364;SDS011;21464;48.112;11.530;2022-10-16T00:33:23;1.77;;;1.60;;
35364;SDS011;21464;48.112;11.530;2022-10-16T00:35:49;2.03;;;1.80;;
35364;SDS011;21464;48.112;11.530;2022-10-16T00:38:16;2.33;;;1.60;;
35364;SDS011;21464;48.112;11.530;2022-10-16T00:40:42;1.60;;;1.50;;
35364;SDS011;21464;48.112;11.530;2022-10-16T00:43:54;1.63;;;1.50;;
35364;SDS011;21464;48.112;11.530;2022-10-16T00:45:54;1.70;;;1.55;;
35364;SDS011;21464;48.112;11.530;2022-10-16T00:48:20;1.63;;;1.40;;
35364;SDS011;21464;48.112;11.530;2022-10-16T00:50:46;1.60;;;1.42;;
35364;SDS011;21464;48.112;11.530;2022-10-16T00:53:12;1.60;;;1.50;;
35364;SDS011;21464;48.112;11.530;2022-10-16T00:55:38;2.55;;;1.50;;
35364;SDS011;21464;48.112;11.530;2022-10-16T00:58:04;2.13;;;1.65;;
35364;SDS011;21464;48.112;11.530;2022-10-16T01:00:30;1.70;;;1.60;;
35364;SDS011;21464;48.112;11.530;2022-10-16T01:02:57;2.83;;;1.90;;
35364;SDS011;21464;48.112;11.530;2022-10-16T01:05:25;1.65;;;1.55;;
35364;SDS011;21464;48.112;11.530;2022-10-16T01:07:58;2.78;;;1.60;;
35364;SDS011;21464;48.112;11.530;2022-10-16T01:10:41;5.55;;;1.95;;
35364;SDS011;21464;48.112;11.530;2022-10-16T01:13:11;3.17;;;1.85;;
35364;SDS011;21464;48.112;11.530;2022-10-16T01:20:31;2.40;;;1.50;;
35364;SDS011;21464;48.112;11.530;2022-10-16T01:28:11;1.73;;;1.50;;
35364;SDS011;21464;48.112;11.530;2022-10-16T01:30:37;2.85;;;1.25;;
35364;SDS011;21464;48.112;11.530;2022-10-16T01:33:10;3.28;;;1.65;;
35364;SDS011;21464;48.112;11.530;2022-10-16T01:35:58;1.67;;;1.55;;
35364;SDS011;21464;48.112;11.530;2022-10-16T01:38:37;2.00;;;1.60;;
35364;SDS011;21464;48.112;11.530;2022-10-16T01:41:06;2.95;;;1.40;;
35364;SDS011;21464;48.112;11.530;2022-10-16T01:43:45;1.70;;;1.60;;
35364;SDS011;21464;48.112;11.530;2022-10-16T01:46:12;3.47;;;1.63;;
35364;SDS011;21464;48.112;11.530;2022-10-16T01:48:39;2.95;;;1.60;;
35364;SDS011;21464;48.112;11.530;2022-10-16T01:51:07;2.35;;;1.80;;
35364;SDS011;21464;48.112;11.530;2022-10-16T01:53:34;2.55;;;2.10;;
35364;SDS011;21464;48.112;11.530;2022-10-16T01:56:00;2.53;;;2.20;;
35364;SDS011;21464;48.112;11.530;2022-10-16T01:58:28;2.45;;;2.20;;
35364;SDS011;21464;48.112;11.530;2022-10-16T02:01:00;2.15;;;1.67;;
35364;SDS011;21464;48.112;11.530;2022-10-16T02:03:27;1.42;;;1.33;;
35364;SDS011;21464;48.112;11.530;2022-10-16T02:05:54;1.52;;;1.42;;
35364;SDS011;21464;48.112;11.530;2022-10-16T02:08:20;1.40;;;1.30;;
35364;SDS011;21464;48.112;11.530;2022-10-16T02:10:48;3.03;;;1.40;;
35364;SDS011;21464;48.112;11.530;2022-10-16T02:15:40;1.98;;;1.15;;
35364;SDS011;21464;48.112;11.530;2022-10-16T02:18:05;2.15;;;1.40;;
35364;SDS011;21464;48.112;11.530;2022-10-16T02:20:33;1.88;;;1.27;;
35364;SDS011;21464;48.112;11.530;2022-10-16T02:22:59;2.25;;;1.50;;
35364;SDS011;21464;48.112;11.530;2022-10-16T02:25:30;2.47;;;1.40;;
35364;SDS011;21464;48.112;11.530;2022-10-16T02:28:01;2.15;;;1.40;;
35364;SDS011;21464;48.112;11.530;2022-10-16T02:32:54;1.60;;;1.45;;
35364;SDS011;21464;48.112;11.530;2022-10-16T02:35:21;2.40;;;1.52;;
35364;SDS011;21464;48.112;11.530;2022-10-16T02:37:48;1.40;;;1.30;;
35364;SDS011;21464;48.112;11.530;2022-10-16T02:40:15;1.60;;;1.50;;
35364;SDS011;21464;48.112;11.530;2022-10-16T02:42:42;2.88;;;1.73;;
35364;SDS011;21464;48.112;11.530;2022-10-16T02:45:09;2.05;;;1.40;;
35364;SDS011;21464;48.112;11.530;2022-10-16T02:47:35;2.63;;;1.58;;
35364;SDS011;21464;48.112;11.530;2022-10-16T02:50:01;1.80;;;1.50;;
35364;SDS011;21464;48.112;11.530;2022-10-16T02:52:27;2.45;;;1.40;;
35364;SDS011;21464;48.112;11.530;2022-10-16T02:54:53;2.60;;;1.25;;
35364;SDS011;21464;48.112;11.530;2022-10-16T02:57:18;3.15;;;1.60;;
35364;SDS011;21464;48.112;11.530;2022-10-16T02:59:44;2.00;;;1.38;;
35364;SDS011;21464;48.112;11.530;2022-10-16T03:02:11;1.23;;;1.23;;
35364;SDS011;21464;48.112;11.530;2022-10-16T03:04:37;1.50;;;1.40;;
35364;SDS011;21464;48.112;11.530;2022-10-16T03:07:03;2.40;;;1.50;;
35364;SDS011;21464;48.112;11.530;2022-10-16T03:09:29;2.92;;;1.40;;
35364;SDS011;21464;48.112;11.530;2022-10-16T03:11:55;3.38;;;1.70;;
35364;SDS011;21464;48.112;11.530;2022-10-16T03:14:21;1.88;;;1.50;;
35364;SDS011;21464;48.112;11.530;2022-10-16T03:16:47;1.38;;;1.30;;
35364;SDS011;21464;48.112;11.530;2022-10-16T03:19:13;1.75;;;1.40;;
35364;SDS011;21464;48.112;11.530;2022-10-16T03:21:38;2.05;;;1.30;;
35364;SDS011;21464;48.112;11.530;2022-10-16T03:24:04;1.58;;;1.48;;
35364;SDS011;21464;48.112;11.530;2022-10-16T03:26:30;1.88;;;1.13;;
35364;SDS011;21464;48.112;11.530;2022-10-16T03:28:56;1.58;;;1.48;;
35364;SDS011;21464;48.112;11.530;2022-10-16T03:31:22;1.20;;;1.15;;
35364;SDS011;21464;48.112;11.530;2022-10-16T03:33:48;1.40;;;1.30;;
35364;SDS011;21464;48.112;11.530;2022-10-16T03:36:14;1.60;;;1.50;;
35364;SDS011;21464;48.112;11.530;2022-10-16T03:38:40;1.27;;;1.20;;
35364;SDS011;21464;48.112;11.530;2022-10-16T03:41:06;1.98;;;1.65;;
35364;SDS011;21464;48.112;11.530;2022-10-16T03:43:33;1.52;;;1.40;;
35364;SDS011;21464;48.112;11.530;2022-10-16T03:45:59;1.48;;;1.38;;
35364;SDS011;21464;48.112;11.530;2022-10-16T03:48:25;1.88;;;1.38;;
35364;SDS011;21464;48.112;11.530;2022-10-16T03:50:51;3.50;;;1.30;;
35364;SDS011;21464;48.112;11.530;2022-10-16T03:53:17;2.45;;;1.52;;
35364;SDS011;21464;48.112;11.530;2022-10-16T03:55:43;1.25;;;1.23;;
35364;SDS011;21464;48.112;11.530;2022-10-16T03:58:09;1.83;;;1.08;;
35364;SDS011;21464;48.112;11.530;2022-10-16T04:00:35;1.50;;;1.40;;
35364;SDS011;21464;48.112;11.530;2022-10-16T04:03:01;5.18;;;1.40;;
35364;SDS011;21464;48.112;11.530;2022-10-16T04:05:26;1.85;;;1.75;;
35364;SDS011;21464;48.112;11.530;2022-10-16T04:07:52;1.80;;;1.70;;
35364;SDS011;21464;48.112;11.530;2022-10-16T04:10:18;2.13;;;2.00;;
35364;SDS011;21464;48.112;11.530;2022-10-16T04:12:44;3.85;;;1.90;;
35364;SDS011;21464;48.112;11.530;2022-10-16T04:15:10;4.13;;;3.05;;
35364;SDS011;21464;48.112;11.530;2022-10-16T04:17:36;4.18;;;3.45;;
35364;SDS011;21464;48.112;11.530;2022-10-16T04:20:02;3.63;;;3.33;;
35364;SDS011;21464;48.112;11.530;2022-10-16T04:22:28;5.68;;;3.13;;
35364;SDS011;21464;48.112;11.530;2022-10-16T04:24:55;2.10;;;2.00;;
35364;SDS011;21464;48.112;11.530;2022-10-16T04:27:20;2.10;;;2.00;;
35364;SDS011;21464;48.112;11.530;2022-10-16T04:29:46;2.03;;;1.92;;
35364;SDS011;21464;48.112;11.530;2022-10-16T04:32:12;1.80;;;1.70;;
35364;SDS011;21464;48.112;11.530;2022-10-16T04:34:39;1.70;;;1.60;;
35364;SDS011;21464;48.112;11.530;2022-10-16T04:37:05;2.42;;;1.67;;
35364;SDS011;21464;48.112;11.530;2022-10-16T04:39:31;1.63;;;1.52;;
35364;SDS011;21464;48.112;11.530;2022-10-16T04:41:57;1.73;;;1.63;;
35364;SDS011;21464;48.112;11.530;2022-10-16T04:44:22;1.70;;;1.60;;
35364;SDS011;21464;48.112;11.530;2022-10-16T04:46:50;1.83;;;1.42;;
35364;SDS011;21464;48.112;11.530;2022-10-16T04:49:16;1.60;;;1.48;;
35364;SDS011;21464;48.112;11.530;2022-10-16T04:51:41;2.78;;;1.90;;
35364;SDS011;21464;48.112;11.530;2022-10-16T04:54:08;2.25;;;1.60;;
35364;SDS011;21464;48.112;11.530;2022-10-16T04:56:34;5.13;;;4.63;;
35364;SDS011;21464;48.112;11.530;2022-10-16T04:59:05;5.63;;;2.67;;
35364;SDS011;21464;48.112;11.530;2022-10-16T05:01:31;2.95;;;2.72;;
35364;SDS011;21464;48.112;11.530;2022-10-16T05:03:57;2.10;;;1.95;;
35364;SDS011;21464;48.112;11.530;2022-10-16T05:06:23;2.53;;;2.33;;
35364;SDS011;21464;48.112;11.530;2022-10-16T05:08:49;3.85;;;1.92;;
35364;SDS011;21464;48.112;11.530;2022-10-16T05:11:15;2.03;;;1.80;;
35364;SDS011;21464;48.112;11.530;2022-10-16T05:13:40;2.60;;;1.90;;
35364;SDS011;21464;48.112;11.530;2022-10-16T05:16:06;3.28;;;2.42;;
35364;SDS011;21464;48.112;11.530;2022-10-16T05:18:32;4.50;;;2.25;;
35364;SDS011;21464;48.112;11.530;2022-10-16T05:20:58;1.85;;;1.75;;
35364;SDS011;21464;48.112;11.530;2022-10-16T05:23:24;7.45;;;2.60;;
35364;SDS011;21464;48.112;11.530;2022-10-16T05:25:54;3.40;;;2.85;;
35364;SDS011;21464;48.112;11.530;2022-10-16T05:28:20;2.65;;;2.45;;
35364;SDS011;21464;48.112;11.530;2022-10-16T05:30:46;3.17;;;2.10;;
35364;SDS011;21464;48.112;11.530;2022-10-16T05:33:12;3.60;;;2.67;;
35364;SDS011;21464;48.112;11.530;2022-10-16T05:35:39;2.83;;;2.63;;
35364;SDS011;21464;48.112;11.530;2022-10-16T05:38:04;5.07;;;2.97;;
35364;SDS011;21464;48.112;11.530;2022-10-16T05:40:30;3.92;;;3.40;;
35364;SDS011;21464;48.112;11.530;2022-10-16T05:42:56;3.30;;;2.13;;
35364;SDS011;21464;48.112;11.530;2022-10-16T05:45:22;3.38;;;2.50;;
35364;SDS011;21464;48.112;11.530;2022-10-16T05:47:48;7.97;;;4.03;;
35364;SDS011;21464;48.112;11.530;2022-10-16T05:50:14;4.22;;;3.38;;
35364;SDS011;21464;48.112;11.530;2022-10-16T05:52:40;4.53;;;3.63;;
35364;SDS011;21464;48.112;11.530;2022-10-16T05:55:06;6.32;;;4.65;;
35364;SDS011;21464;48.112;11.530;2022-10-16T05:57:32;3.47;;;3.15;;
35364;SDS011;21464;48.112;11.530;2022-10-16T05:59:58;4.05;;;3.00;;
35364;SDS011;21464;48.112;11.530;2022-10-16T06:02:23;5.07;;;4.03;;
35364;SDS011;21464;48.112;11.530;2022-10-16T06:04:51;8.25;;;6.53;;
35364;SDS011;21464;48.112;11.530;2022-10-16T06:07:17;8.73;;;7.00;;
35364;SDS011;21464;48.112;11.530;2022-10-16T06:09:42;8.00;;;5.95;;
35364;SDS011;21464;48.112;11.530;2022-10-16T06:12:08;3.83;;;3.10;;
35364;SDS011;21464;48.112;11.530;2022-10-16T06:14:34;5.85;;;4.78;;
35364;SDS011;21464;48.112;11.530;2022-10-16T06:17:00;8.70;;;4.88;;
35364;SDS011;21464;48.112;11.530;2022-10-16T06:19:26;3.28;;;2.72;;
35364;SDS011;21464;48.112;11.530;2022-10-16T06:21:52;8.75;;;5.93;;
35364;SDS011;21464;48.112;11.530;2022-10-16T06:24:18;6.13;;;4.50;;
35364;SDS011;21464;48.112;11.530;2022-10-16T06:26:44;4.78;;;4.18;;
35364;SDS011;21464;48.112;11.530;2022-10-16T06:29:10;3.42;;;2.60;;
35364;SDS011;21464;48.112;11.530;2022-10-16T06:31:35;4.00;;;3.10;;
35364;SDS011;21464;48.112;11.530;2022-10-16T06:34:01;4.10;;;3.70;;
35364;SDS011;21464;48.112;11.530;2022-10-16T06:36:28;6.78;;;5.10;;
35364;SDS011;21464;48.112;11.530;2022-10-16T06:38:55;4.68;;;3.15;;
35364;SDS011;21464;48.112;11.530;2022-10-16T06:41:22;8.00;;;6.07;;
35364;SDS011;21464;48.112;11.530;2022-10-16T06:43:48;7.45;;;5.55;;
35364;SDS011;21464;48.112;11.530;2022-10-16T06:46:16;4.10;;;3.40;;
35364;SDS011;21464;48.112;11.530;2022-10-16T06:48:42;7.15;;;5.10;;
35364;SDS011;21464;48.112;11.530;2022-10-16T06:51:10;10.70;;;5.70;;
35364;SDS011;21464;48.112;11.530;2022-10-16T06:53:36;5.03;;;3.80;;
35364;SDS011;21464;48.112;11.530;2022-10-16T06:56:06;5.63;;;3.92;;
35364;SDS011;21464;48.112;11.530;2022-10-16T06:58:32;11.45;;;7.50;;
35364;SDS011;21464;48.112;11.530;2022-10-16T07:00:58;3.00;;;2.75;;
35364;SDS011;21464;48.112;11.530;2022-10-16T07:03:24;2.88;;;2.58;;
35364;SDS011;21464;48.112;11.530;2022-10-16T07:05:50;3.00;;;2.80;;
35364;SDS011;21464;48.112;11.530;2022-10-16T07:08:16;3.10;;;2.75;;
35364;SDS011;21464;48.112;11.530;2022-10-16T07:10:42;2.92;;;2.47;;
35364;SDS011;21464;48.112;11.530;2022-10-16T07:13:08;3.75;;;3.05;;
35364;SDS011;21464;48.112;11.530;2022-10-16T07:15:34;2.30;;;2.10;;
35364;SDS011;21464;48.112;11.530;2022-10-16T07:17:59;5.50;;;3.75;;
35364;SDS011;21464;48.112;11.530;2022-10-16T07:20:25;5.20;;;3.70;;
35364;SDS011;21464;48.112;11.530;2022-10-16T07:22:51;6.75;;;4.55;;
35364;SDS011;21464;48.112;11.530;2022-10-16T07:25:17;4.72;;;4.18;;
35364;SDS011;21464;48.112;11.530;2022-10-16T07:27:43;3.58;;;3.03;;
35364;SDS011;21464;48.112;11.530;2022-10-16T07:30:09;4.45;;;3.20;;
35364;SDS011;21464;48.112;11.530;2022-10-16T07:32:35;2.70;;;2.47;;
35364;SDS011;21464;48.112;11.530;2022-10-16T07:35:01;2.67;;;2.47;;
35364;SDS011;21464;48.112;11.530;2022-10-16T07:37:27;2.60;;;2.40;;
35364;SDS011;21464;48.112;11.530;2022-10-16T07:39:53;2.10;;;2.00;;
35364;SDS011;21464;48.112;11.530;2022-10-16T07:42:19;2.75;;;2.28;;
35364;SDS011;21464;48.112;11.530;2022-10-16T07:44:45;2.58;;;2.28;;
35364;SDS011;21464;48.112;11.530;2022-10-16T07:47:11;2.60;;;2.40;;
35364;SDS011;21464;48.112;11.530;2022-10-16T07:49:38;2.45;;;2.20;;
35364;SDS011;21464;48.112;11.530;2022-10-16T07:52:04;3.35;;;2.60;;
35364;SDS011;21464;48.112;11.530;2022-10-16T07:54:30;2.78;;;2.25;;
35364;SDS011;21464;48.112;11.530;2022-10-16T07:56:56;2.60;;;2.40;;
35364;SDS011;21464;48.112;11.530;2022-10-16T07:59:21;2.80;;;2.00;;
35364;SDS011;21464;48.112;11.530;2022-10-16T08:01:48;2.38;;;2.03;;
35364;SDS011;21464;48.112;11.530;2022-10-16T08:04:14;3.03;;;2.30;;
35364;SDS011;21464;48.112;11.530;2022-10-16T08:06:40;2.92;;;2.28;;
35364;SDS011;21464;48.112;11.530;2022-10-16T08:09:07;3.15;;;1.90;;
35364;SDS011;21464;48.112;11.530;2022-10-16T08:11:33;4.70;;;3.28;;
35364;SDS011;21464;48.112;11.530;2022-10-16T08:13:59;2.40;;;2.20;;
35364;SDS011;21464;48.112;11.530;2022-10-16T08:16:25;2.85;;;2.55;;
35364;SDS011;21464;48.112;11.530;2022-10-16T08:18:51;3.30;;;2.90;;
35364;SDS011;21464;48.112;11.530;2022-10-16T08:21:18;4.15;;;2.35;;
35364;SDS011;21464;48.112;11.530;2022-10-16T08:23:44;4.50;;;2.88;;
35364;SDS011;21464;48.112;11.530;2022-10-16T08:26:10;4.10;;;3.70;;
35364;SDS011;21464;48.112;11.530;2022-10-16T08:28:36;3.28;;;2.30;;
35364;SDS011;21464;48.112;11.530;2022-10-16T08:31:09;2.90;;;2.40;;
35364;SDS011;21464;48.112;11.530;2022-10-16T08:33:36;2.45;;;2.15;;
35364;SDS011;21464;48.112;11.530;2022-10-16T08:36:03;2.38;;;2.08;;
35364;SDS011;21464;48.112;11.530;2022-10-16T08:38:29;5.55;;;5.03;;
35364;SDS011;21464;48.112;11.530;2022-10-16T08:40:57;2.80;;;2.60;;
35364;SDS011;21464;48.112;11.530;2022-10-16T08:48:48;2.60;;;2.38;;
35364;SDS011;21464;48.112;11.530;2022-10-16T08:51:21;3.30;;;3.00;;
35364;SDS011;21464;48.112;11.530;2022-10-16T08:56:17;1.67;;;1.58;;
35364;SDS011;21464;48.112;11.530;2022-10-16T08:58:43;2.45;;;2.25;;
35364;SDS011;21464;48.112;11.530;2022-10-16T09:01:11;3.35;;;1.90;;
35364;SDS011;21464;48.112;11.530;2022-10-16T09:11:36;1.85;;;1.75;;
35364;SDS011;21464;48.112;11.530;2022-10-16T09:16:56;1.75;;;1.65;;
35364;SDS011;21464;48.112;11.530;2022-10-16T09:19:33;2.35;;;1.75;;
35364;SDS011;21464;48.112;11.530;2022-10-16T09:28:51;3.00;;;1.88;;
35364;SDS011;21464;48.112;11.530;2022-10-16T09:31:18;2.00;;;1.90;;
35364;SDS011;21464;48.112;11.530;2022-10-16T09:33:47;2.15;;;2.00;;
35364;SDS011;21464;48.112;11.530;2022-10-16T09:36:13;2.85;;;2.20;;
35364;SDS011;21464;48.112;11.530;2022-10-16T09:38:40;2.65;;;1.90;;
35364;SDS011;21464;48.112;11.530;2022-10-16T09:41:24;3.58;;;1.80;;
35364;SDS011;21464;48.112;11.530;2022-10-16T09:43:57;2.13;;;2.00;;
35364;SDS011;21464;48.112;11.530;2022-10-16T09:48:51;2.80;;;1.80;;
35364;SDS011;21464;48.112;11.530;2022-10-16T09:53:57;3.22;;;2.50;;
35364;SDS011;21464;48.112;11.530;2022-10-16T09:56:33;4.97;;;2.92;;
35364;SDS011;21464;48.112;11.530;2022-10-16T09:59:08;2.13;;;2.00;;
35364;SDS011;21464;48.112;11.530;2022-10-16T10:01:44;3.45;;;2.40;;
35364;SDS011;21464;48.112;11.530;2022-10-16T10:04:11;2.13;;;2.03;;
35364;SDS011;21464;48.112;11.530;2022-10-16T10:06:41;2.83;;;2.40;;
35364;SDS011;21464;48.112;11.530;2022-10-16T10:20:14;1.90;;;1.80;;
35364;SDS011;21464;48.112;11.530;2022-10-16T10:27:56;1.90;;;1.80;;
35364;SDS011;21464;48.112;11.530;2022-10-16T10:30:29;1.98;;;1.88;;
35364;SDS011;21464;48.112;11.530;2022-10-16T10:46:04;1.70;;;1.60;;
35364;SDS011;21464;48.112;11.530;2022-10-16T10:48:52;1.80;;;1.70;;
35364;SDS011;21464;48.112;11.530;2022-10-16T10:51:27;1.83;;;1.70;;
35364;SDS011;21464;48.112;11.530;2022-10-16T11:02:01;3.10;;;1.75;;
35364;SDS011;21464;48.112;11.530;2022-10-16T11:07:08;2.97;;;1.50;;
35364;SDS011;21464;48.112;11.530;2022-10-16T11:09:37;2.10;;;1.90;;
35364;SDS011;21464;48.112;11.530;2022-10-16T11:12:18;2.45;;;1.30;;
35364;SDS011;21464;48.112;11.530;2022-10-16T11:14:55;1.60;;;1.50;;
35364;SDS011;21464;48.112;11.530;2022-10-16T11:17:23;3.35;;;1.83;;
35364;SDS011;21464;48.112;11.530;2022-10-16T11:19:58;2.47;;;1.40;;
35364;SDS011;21464;48.112;11.530;2022-10-16T11:30:34;0.82;;;0.82;;
35364;SDS011;21464;48.112;11.530;2022-10-16T11:38:02;1.20;;;1.10;;
35364;SDS011;21464;48.112;11.530;2022-10-16T11:40:33;0.90;;;0.90;;
35364;SDS011;21464;48.112;11.530;2022-10-16T11:50:56;0.85;;;0.85;;
35364;SDS011;21464;48.112;11.530;2022-10-16T11:55:59;1.10;;;1.02;;
35364;SDS011;21464;48.112;11.530;2022-10-16T11:58:35;0.85;;;0.85;;
35364;SDS011;21464;48.112;11.530;2022-10-16T12:04:01;0.88;;;0.88;;
35364;SDS011;21464;48.112;11.530;2022-10-16T12:09:01;0.80;;;0.75;;
35364;SDS011;21464;48.112;11.530;2022-10-16T12:16:59;0.80;;;0.80;;
35364;SDS011;21464;48.112;11.530;2022-10-16T12:19:25;0.65;;;0.65;;
35364;SDS011;21464;48.112;11.530;2022-10-16T12:21:52;0.80;;;0.80;;
35364;SDS011;21464;48.112;11.530;2022-10-16T12:24:34;0.75;;;0.75;;
35364;SDS011;21464;48.112;11.530;2022-10-16T12:27:00;1.80;;;0.93;;
35364;SDS011;21464;48.112;11.530;2022-10-16T12:29:39;1.15;;;0.88;;
35364;SDS011;21464;48.112;11.530;2022-10-16T12:32:52;0.80;;;0.80;;
35364;SDS011;21464;48.112;11.530;2022-10-16T12:34:52;1.25;;;0.80;;
35364;SDS011;21464;48.112;11.530;2022-10-16T12:37:22;0.80;;;0.80;;
35364;SDS011;21464;48.112;11.530;2022-10-16T12:39:49;0.90;;;0.88;;
35364;SDS011;21464;48.112;11.530;2022-10-16T12:44:53;0.70;;;0.70;;
35364;SDS011;21464;48.112;11.530;2022-10-16T12:49:58;0.82;;;0.82;;
35364;SDS011;21464;48.112;11.530;2022-10-16T12:54:59;1.30;;;0.80;;
35364;SDS011;21464;48.112;11.530;2022-10-16T13:07:32;0.75;;;0.75;;
35364;SDS011;21464;48.112;11.530;2022-10-16T13:10:06;1.08;;;0.90;;
35364;SDS011;21464;48.112;11.530;2022-10-16T13:30:29;0.70;;;0.70;;
35364;SDS011;21464;48.112;11.530;2022-10-16T13:35:26;2.90;;;2.17;;
35364;SDS011;21464;48.112;11.530;2022-10-16T13:38:03;1.40;;;1.30;;
35364;SDS011;21464;48.112;11.530;2022-10-16T13:40:29;0.82;;;0.77;;
35364;SDS011;21464;48.112;11.530;2022-10-16T13:42:55;1.63;;;1.00;;
35364;SDS011;21464;48.112;11.530;2022-10-16T13:45:23;0.70;;;0.70;;
35364;SDS011;21464;48.112;11.530;2022-10-16T13:47:49;0.77;;;0.77;;
35364;SDS011;21464;48.112;11.530;2022-10-16T13:50:17;0.57;;;0.57;;
35364;SDS011;21464;48.112;11.530;2022-10-16T13:52:43;1.33;;;1.00;;
35364;SDS011;21464;48.112;11.530;2022-10-16T13:55:10;1.45;;;1.35;;
35364;SDS011;21464;48.112;11.530;2022-10-16T13:57:36;1.00;;;1.00;;
35364;SDS011;21464;48.112;11.530;2022-10-16T14:00:03;2.92;;;1.52;;
35364;SDS011;21464;48.112;11.530;2022-10-16T14:02:31;1.60;;;1.50;;
35364;SDS011;21464;48.112;11.530;2022-10-16T14:05:00;2.30;;;2.10;;
35364;SDS011;21464;48.112;11.530;2022-10-16T14:07:27;1.77;;;1.20;;
35364;SDS011;21464;48.112;11.530;2022-10-16T14:09:54;0.75;;;0.75;;
35364;SDS011;21464;48.112;11.530;2022-10-16T14:12:21;1.90;;;1.60;;
35364;SDS011;21464;48.112;11.530;2022-10-16T14:14:51;1.40;;;1.23;;
35364;SDS011;21464;48.112;11.530;2022-10-16T14:17:25;0.70;;;0.70;;
35364;SDS011;21464;48.112;11.530;2022-10-16T14:19:53;1.10;;;1.10;;
35364;SDS011;21464;48.112;11.530;2022-10-16T14:24:45;0.95;;;0.60;;
35364;SDS011;21464;48.112;11.530;2022-10-16T14:27:20;0.70;;;0.70;;
35364;SDS011;21464;48.112;11.530;2022-10-16T14:29:49;0.90;;;0.90;;
35364;SDS011;21464;48.112;11.530;2022-10-16T14:32:22;1.00;;;1.00;;
35364;SDS011;21464;48.112;11.530;2022-10-16T14:34:52;1.05;;;1.00;;
35364;SDS011;21464;48.112;11.530;2022-10-16T14:37:25;0.80;;;0.80;;
35364;SDS011;21464;48.112;11.530;2022-10-16T14:39:52;1.77;;;1.00;;
35364;SDS011;21464;48.112;11.530;2022-10-16T14:42:19;1.67;;;0.93;;
35364;SDS011;21464;48.112;11.530;2022-10-16T14:44:45;0.82;;;0.82;;
35364;SDS011;21464;48.112;11.530;2022-10-16T14:47:18;1.65;;;1.55;;
35364;SDS011;21464;48.112;11.530;2022-10-16T14:49:49;1.20;;;1.20;;
35364;SDS011;21464;48.112;11.530;2022-10-16T14:52:15;2.25;;;1.02;;
35364;SDS011;21464;48.112;11.530;2022-10-16T14:54:41;1.13;;;1.13;;
35364;SDS011;21464;48.112;11.530;2022-10-16T14:57:17;2.33;;;0.90;;
35364;SDS011;21464;48.112;11.530;2022-10-16T14:59:43;1.95;;;0.80;;
35364;SDS011;21464;48.112;11.530;2022-10-16T15:04:50;1.45;;;1.02;;
35364;SDS011;21464;48.112;11.530;2022-10-16T15:07:16;0.75;;;0.75;;
35364;SDS011;21464;48.112;11.530;2022-10-16T15:09:42;1.42;;;0.80;;
35364;SDS011;21464;48.112;11.530;2022-10-16T15:12:08;1.13;;;1.10;;
35364;SDS011;21464;48.112;11.530;2022-10-16T15:14:33;1.25;;;1.15;;
35364;SDS011;21464;48.112;11.530;2022-10-16T15:16:59;1.27;;;1.17;;
35364;SDS011;21464;48.112;11.530;2022-10-16T15:19:25;0.93;;;0.93;;
35364;SDS011;21464;48.112;11.530;2022-10-16T15:21:51;1.40;;;1.30;;
35364;SDS011;21464;48.112;11.530;2022-10-16T15:24:18;2.55;;;1.67;;
35364;SDS011;21464;48.112;11.530;2022-10-16T15:26:44;2.65;;;1.23;;
35364;SDS011;21464;48.112;11.530;2022-10-16T15:29:11;1.52;;;1.23;;
35364;SDS011;21464;48.112;11.530;2022-10-16T15:31:37;2.20;;;1.98;;
35364;SDS011;21464;48.112;11.530;2022-10-16T15:34:04;4.35;;;3.20;;
35364;SDS011;21464;48.112;11.530;2022-10-16T15:36:30;9.27;;;4.60;;
35364;SDS011;21464;48.112;11.530;2022-10-16T15:38:56;7.05;;;4.03;;
35364;SDS011;21464;48.112;11.530;2022-10-16T15:41:23;14.07;;;5.82;;
35364;SDS011;21464;48.112;11.530;2022-10-16T15:43:49;7.63;;;4.43;;
35364;SDS011;21464;48.112;11.530;2022-10-16T15:46:17;3.70;;;2.65;;
35364;SDS011;21464;48.112;11.530;2022-10-16T15:48:43;3.85;;;2.80;;
35364;SDS011;21464;48.112;11.530;2022-10-16T15:51:09;6.03;;;3.13;;
35364;SDS011;21464;48.112;11.530;2022-10-16T15:53:35;4.35;;;2.72;;
35364;SDS011;21464;48.112;11.530;2022-10-16T15:56:04;5.45;;;2.00;;
35364;SDS011;21464;48.112;11.530;2022-10-16T15:58:31;2.67;;;1.92;;
35364;SDS011;21464;48.112;11.530;2022-10-16T16:00:57;2.25;;;1.95;;
35364;SDS011;21464;48.112;11.530;2022-10-16T16:03:23;4.93;;;3.45;;
35364;SDS011;21464;48.112;11.530;2022-10-16T16:05:49;4.75;;;3.35;;
35364;SDS011;21464;48.112;11.530;2022-10-16T16:08:15;2.80;;;2.60;;
35364;SDS011;21464;48.112;11.530;2022-10-16T16:10:42;3.78;;;2.75;;
35364;SDS011;21464;48.112;11.530;2022-10-16T16:13:08;2.67;;;2.10;;
35364;SDS011;21464;48.112;11.530;2022-10-16T16:15:34;2.70;;;2.50;;
35364;SDS011;21464;48.112;11.530;2022-10-16T16:18:00;4.20;;;2.25;;
35364;SDS011;21464;48.112;11.530;2022-10-16T16:20:27;3.08;;;2.25;;
35364;SDS011;21464;48.112;11.530;2022-10-16T16:22:54;2.10;;;2.00;;
35364;SDS011;21464;48.112;11.530;2022-10-16T16:25:20;2.97;;;2.10;;
35364;SDS011;21464;48.112;11.530;2022-10-16T16:27:46;2.30;;;2.10;;
35364;SDS011;21464;48.112;11.530;2022-10-16T16:30:12;2.17;;;1.98;;
35364;SDS011;21464;48.112;11.530;2022-10-16T16:32:38;5.43;;;2.10;;
35364;SDS011;21464;48.112;11.530;2022-10-16T16:35:04;3.08;;;2.30;;
35364;SDS011;21464;48.112;11.530;2022-10-16T16:37:30;2.65;;;2.33;;
35364;SDS011;21464;48.112;11.530;2022-10-16T16:39:56;2.85;;;2.22;;
35364;SDS011;21464;48.112;11.530;2022-10-16T16:42:25;2.33;;;2.08;;
35364;SDS011;21464;48.112;11.530;2022-10-16T16:44:51;3.45;;;2.72;;
35364;SDS011;21464;48.112;11.530;2022-10-16T16:47:17;3.85;;;2.38;;
35364;SDS011;21464;48.112;11.530;2022-10-16T16:49:43;2.30;;;2.10;;
35364;SDS011;21464;48.112;11.530;2022-10-16T16:52:08;3.75;;;2.55;;
35364;SDS011;21464;48.112;11.530;2022-10-16T16:54:34;2.97;;;2.33;;
35364;SDS011;21464;48.112;11.530;2022-10-16T16:57:00;2.70;;;1.95;;
35364;SDS011;21464;48.112;11.530;2022-10-16T16:59:26;9.80;;;5.72;;
35364;SDS011;21464;48.112;11.530;2022-10-16T17:01:52;4.65;;;3.70;;
35364;SDS011;21464;48.112;11.530;2022-10-16T17:04:18;6.95;;;5.35;;
35364;SDS011;21464;48.112;11.530;2022-10-16T17:06:44;8.23;;;5.78;;
35364;SDS011;21464;48.112;11.530;2022-10-16T17:09:10;8.35;;;6.20;;
35364;SDS011;21464;48.112;11.530;2022-10-16T17:11:39;4.82;;;3.50;;
35364;SDS011;21464;48.112;11.530;2022-10-16T17:14:07;4.00;;;3.17;;
35364;SDS011;21464;48.112;11.530;2022-10-16T17:16:34;3.60;;;2.45;;
35364;SDS011;21464;48.112;11.530;2022-10-16T17:19:01;5.88;;;5.10;;